METAR Data
IDs: Format: Raw Decoded Include TAF

Data at: 0025 UTC 26 Oct 2021

PAHP 260015Z AUTO 32014G22KT 10SM SCT015 SCT033 OVC049 M01/M06 A2947 RMK AO2 FZRANO
PAHP 260007Z AUTO 32013KT 10SM FEW008 BKN015 OVC047 M01/M06 A2947 RMK AO2 FZRANO
PAHP 252356Z AUTO 33015KT 10SM FEW007 BKN012 OVC017 M01/M06 A2947 RMK AO2 UPB27E42SNE27 SLP980 P0000 60000 T10111056 10022 21033 50001 FZRANO
PAHP 252323Z AUTO 30008KT 3SM -SN BR OVC006 M02/M03 A2947 RMK AO2 CIG 005V009 P0000 FZRANO
PAHP 252308Z AUTO 32010KT 1 1/2SM -SN BR BKN008 BKN028 OVC042 M02/M03 A2948 RMK AO2 CIG 005V011 P0000 FZRANO
PAHP 252301Z AUTO 33013KT 1SM -SN BR BKN008 BKN028 OVC042 M02/M03 A2948 RMK AO2 CIG 005V011 P0000 FZRANO
PAHP 252256Z AUTO 32015KT 1 3/4SM -SN BR SCT008 BKN028 OVC042 M02/M03 A2947 RMK AO2 UPB41E56SNB56 SLP981 P0000 T10171028 FZRANO
PAHP 252156Z AUTO 34005KT 10SM FEW020 BKN060 M01/M04 A2947 RMK AO2 UPE32SNB12E27B35E45 SLP979 P0000 T10111044 FZRANO
PAHP 252153Z AUTO 34005KT 10SM FEW020 SCT028 BKN060 M01/M04 A2947 RMK AO2 UPE32SNB12E27B35E45 P0000 FZRANO
PAHP 252056Z AUTO 05004KT 9SM UP BKN022 OVC027 M01/M04 A2947 RMK AO2 RAB31E44UPB44 SLP979 P0000 60000 T10111039 53004 FZRANO
PAHP 252046Z AUTO 36005KT 9SM UP BKN024 OVC036 M01/M04 A2947 RMK AO2 RAB31E44UPB44 P0000 FZRANO
PAHP 251956Z AUTO 00000KT 10SM BKN048 M01/M03 A2946 RMK AO2 UPB00E07SNE00 SLP976 P0000 T10111028 FZRANO
PAHP 251856Z AUTO 35006KT 8SM -SN BKN065 M03/M04 A2946 RMK AO2 SNE27B46 SLP976 P0000 T10281044 FZRANO
PAHP 251841Z AUTO 36007KT 10SM FEW010 SCT021 M03/M05 A2946 RMK AO2 SNE27 P0000 FZRANO
PAHP 251814Z AUTO 35005KT 6SM -SN BR FEW010 OVC021 M02/M04 A2945 RMK AO2 P0000 FZRANO
PAHP 251803Z AUTO 34009KT 5SM -SN BR SCT008 BKN014 OVC021 M02/M03 A2946 RMK AO2 P0000 FZRANO
PAHP 251756Z AUTO 32005KT 2 1/2SM -SN BR SCT008 BKN014 OVC021 M02/M03 A2946 RMK AO2 VIS 1 1/2V5 SLP974 P0000 60000 T10171033 11011 21039 53003 FZRANO
PAHP 251750Z AUTO 32005KT 2 1/2SM -SN BR FEW008 BKN014 OVC023 M02/M04 A2946 RMK AO2 P0000 FZRANO
PAHP 251745Z AUTO 32005KT 6SM -SN BR FEW008 BKN016 OVC023 M02/M04 A2946 RMK AO2 P0000 FZRANO
PAHP 251728Z AUTO 00000KT 9SM -SN SCT014 BKN019 OVC034 M02/M04 A2945 RMK AO2 P0000 FZRANO
PAHP 251656Z AUTO 34009KT 7SM -SN FEW044 BKN060 M02/M04 A2946 RMK AO2 SNB22 SLP974 P0000 T10171039 FZRANO
PAHP 251556Z AUTO 32011KT 10SM CLR M02/M06 A2944 RMK AO2 SNE1458 SLP970 P0000 T10171056 FZRANO
PAHP 251456Z AUTO 36004KT 9SM -SN FEW030 M04/M07 A2945 RMK AO2 SNE03B41 SLP971 P0000 60000 T10391072 50000 FZRANO
PAHP 251356Z AUTO 34008KT 9SM -SN BKN034 OVC042 M01/M06 A2945 RMK AO2 SNB17 SLP973 P0000 T10111056 FZRANO
PAHP 251256Z AUTO 35009KT 10SM FEW031 M03/M06 A2945 RMK AO2 SLP972 T10281061 FZRANO
PAHP 251156Z AUTO 35011KT 10SM SCT046 M02/M06 A2945 RMK AO2 SNE40 SLP971 P0000 60000 T10171056 11006 21017 58002 FZRANO
PAHP 251056Z AUTO 34012KT 9SM -SN OVC045 M01/M04 A2945 RMK AO2 SNB41 SLP971 P0000 T10061044 FZRANO
PAHP 250956Z AUTO 02007KT 10SM FEW021 BKN036 OVC055 M02/M04 A2945 RMK AO2 SNE36 SLP974 P0000 T10171039 FZRANO
PAHP 250856Z AUTO 34013KT 7SM -SN BKN042 M01/M04 A2945 RMK AO2 SNB54 SLP974 P0000 60000 T10111044 400281028 56002 FZRANO
PAHP 250756Z AUTO 32011KT 10SM FEW038 M01/M06 A2945 RMK AO2 SLP974 T10111056 FZRANO
PAHP 250656Z AUTO 34013KT 10SM FEW040 BKN050 M01/M05 A2945 RMK AO2 UPE18SNB18E28 SLP974 P0000 T10111050 FZRANO
PAHP 250630Z AUTO 34010KT 9SM FEW028 BKN044 OVC055 M02/M04 A2946 RMK AO2 UPE18SNB18E28 P0000 FZRANO
PAHP 250556Z AUTO 33012G16KT 9SM UP FEW021 BKN028 OVC034 M01/M03 A2946 RMK AO2 UPB02E05B29E34B53SNE02B34E53 SLP975 P0000 60000 T10111033 10011 21028 58006 FZRANO
PAHP 250456Z AUTO 36004KT 8SM -SN FEW044 M02/M04 A2947 RMK AO2 UPB07E09SNE07B41 SLP978 P0000 T10221039 FZRANO
PAHP 250433Z AUTO 01004KT 10SM SCT028 SCT055 M02/M04 A2947 RMK AO2 UPB07E09SNE07 P0000 FZRANO
PAHP 250356Z AUTO 35005KT 10SM -SN OVC024 M02/M03 A2947 RMK AO2 UPB13E27SNB56 SLP980 P0000 T10171033 FZRANO
PAHP 250312Z AUTO 36003KT 10SM BKN029 M02/M03 A2948 RMK AO2 FZRANO
PAHP 250256Z AUTO 00000KT 10SM BKN030 M02/M03 A2948 RMK AO2 UPE0157 SLP982 60000 T10171033 56012 FZRANO
PAHP 250156Z AUTO 35003KT 10SM UP FEW022 SCT028 OVC036 M01/M02 A2948 RMK AO2 RAE05UPB53SNB05E53 SLP984 P0000 T10061022 FZRANO
PAHP 250148Z AUTO 35004KT 8SM -SN FEW018 SCT024 BKN028 M01/M02 A2949 RMK AO2 RAE05SNB05 P0000 FZRANO
PAHP 250141Z AUTO 34005KT 2 1/2SM -SN BR BKN021 OVC032 M01/M02 A2949 RMK AO2 VIS 1V5 RAE05SNB05 P0000 FZRANO
PAHP 250139Z AUTO 34006KT 1SM -SN BR BKN021 BKN032 M01/M02 A2949 RMK AO2 VIS 1/4V5 RAE05SNB05 P0000 FZRANO
PAHP 250129Z AUTO 32008KT 3/4SM -SN BR SCT019 BKN032 M01/M02 A2949 RMK AO2 RAE05SNB05 P0000 FZRANO
PAHP 250126Z AUTO 32009KT 1 1/2SM -SN BR SCT019 SCT024 BKN032 M01/M02 A2949 RMK AO2 RAE05SNB05 P0000 FZRANO
PAHP 250118Z AUTO 32005KT 2 1/2SM -SN BR SCT019 BKN024 BKN049 00/M02 A2950 RMK AO2 VIS 1 1/2V5 RAE05SNB05 P0000 FZRANO
PAHP 250056Z AUTO 34007KT 10SM -RA FEW016 SCT026 BKN050 01/M03 A2950 RMK AO2 RAB49 SLP988 P0000 T00061028 FZRANO
PAHP 250047Z AUTO 35006KT 10SM SCT016 BKN050 01/M02 A2950 RMK AO2 FZRANO
PAHP 242356Z AUTO 36005KT 10SM SCT016 BKN023 BKN038 00/M02 A2951 RMK AO2 SLP994 60000 T00001022 10028 21017 56012 FZRANO
PAHP 242351Z AUTO 36004KT 10SM BKN018 BKN023 00/M02 A2952 RMK AO2 FZRANO
PAHP 242332Z AUTO 01003KT 10SM FEW018 SCT026 SCT040 00/M02 A2952 RMK AO2 FZRANO
PAHP 242256Z AUTO 35005KT 10SM FEW016 BKN022 OVC029 01/M01 A2953 RMK AO2 SLP999 T00111011 FZRANO
PAHP 242205Z AUTO 00000KT 10SM SCT009 BKN019 OVC034 02/00 A2955 RMK AO2 FZRANO
PAHP 242156Z AUTO 00000KT 10SM BKN009 BKN015 OVC019 01/M01 A2955 RMK AO2 UPB31E37SNE31 CIG 005V012 SLP006 P0000 T00061006 FZRANO
PAHP 242147Z AUTO 01004KT 10SM BKN009 OVC015 M01/M02 A2955 RMK AO2 UPB31E37SNE31 CIG 005V012 P0000 FZRANO
PAHP 242126Z AUTO 35007KT 3SM -SN BR FEW009 BKN015 OVC022 M01/M02 A2955 RMK AO2 P0000 FZRANO
PAHP 242124Z AUTO 34007KT 2SM -SN BR BKN015 OVC022 M01/M02 A2955 RMK AO2 P0000 FZRANO
PAHP 242119Z AUTO 34007KT 1SM -SN BR FEW008 BKN015 OVC022 M01/M02 A2955 RMK AO2 P0000 FZRANO
PAHP 242101Z AUTO 25009KT 1 3/4SM -SN BR FEW009 BKN022 OVC040 00/M02 A2955 RMK AO2 P0000 FZRANO
PAHP 242056Z AUTO 25010KT 3SM -SN BR FEW009 BKN020 OVC040 00/M02 A2955 RMK AO2 UPB02E53SNB53 SLP007 P0000 60000 T00001017 58004 FZRANO
PAHP 242042Z AUTO 25011KT 10SM FEW012 SCT018 OVC038 M01/M02 A2956 RMK AO2 UPB02E35 P0000 FZRANO
PAHP 242030Z AUTO 25013KT 10SM UP FEW011 BKN018 OVC049 00/M02 A2955 RMK AO2 UPB02 P0000 FZRANO
PAHP 241956Z AUTO 29005KT 10SM FEW016 SCT049 BKN075 M01/M03 A2956 RMK AO2 SLP010 T10111028 FZRANO
PAHP 241856Z AUTO 32009KT 10SM FEW017 M02/M03 A2956 RMK AO2 SNE21 SLP010 P0000 T10171033 FZRANO
PAHP 241833Z AUTO 34010KT 10SM FEW006 SCT012 BKN034 M01/M02 A2956 RMK AO2 SNE21 P0000 FZRANO
PAHP 241827Z AUTO 33011KT 10SM FEW006 SCT010 BKN014 M01/M02 A2956 RMK AO2 SNE21 P0000 FZRANO
PAHP 241805Z AUTO 28007KT 3SM -SN BR FEW008 BKN016 OVC029 M02/M03 A2956 RMK AO2 P0000 FZRANO
PAHP 241801Z AUTO 27010KT 2SM -SN BR FEW013 BKN027 OVC032 M01/M03 A2956 RMK AO2 P0000 FZRANO
PAHP 241756Z AUTO 27014KT 1 1/4SM -SN BR SCT013 SCT018 OVC030 M01/M02 A2956 RMK AO2 UPE1658RAB1658E02SNB02 SLP011 P0000 60000 T10111022 10011 21011 56004 FZRANO
PAHP 241753Z AUTO 28017KT 1SM -SN BR FEW008 BKN018 OVC028 M01/M02 A2956 RMK AO2 UPE1658RAB1658E02SNB02 P0000 FZRANO
PAHP 241752Z AUTO 28017KT 1 1/4SM -SN BR FEW008 BKN018 OVC028 M01/M02 A2957 RMK AO2 UPE1658RAB1658E02SNB02 P0000 FZRANO
PAHP 241745Z AUTO 30019G25KT 2 1/2SM -SN BR SCT006 BKN014 OVC026 M01/M02 A2957 RMK AO2 UPE1658RAB1658E02SNB02 P0000 FZRANO
PAHP 241732Z AUTO 30007KT 6SM -SN BR BKN006 BKN012 M01/M03 A2956 RMK AO2 UPE1658RAB1658E02SNB02 CIG 004V011 P0000 FZRANO
PAHP 241723Z AUTO 28012KT 2SM -SN BR BKN006 M01/M03 A2957 RMK AO2 VIS 1V3 UPE1658RAB1658E02SNB02 CIG 004V011 P0000 FZRANO
PAHP 241716Z AUTO 28016KT 1 1/4SM -SN BR SCT006 SCT011 M01/M03 A2957 RMK AO2 UPE1658RAB1658E02SNB02 P0000 FZRANO
PAHP 241706Z AUTO 29017KT 1 3/4SM -SN CLR 00/M03 A2957 RMK AO2 UPE1658RAB1658E02SNB02 P0000 FZRANO
PAHP 241656Z AUTO 29019G24KT 8SM UP FEW050 01/M03 A2957 RMK AO2 UPB56 SLP012 P0000 T00061028 FZRANO
PAHP 241556Z AUTO 30017KT 10SM BKN040 OVC050 00/M03 A2957 RMK AO2 UPE1459RAB1459E11 SLP015 P0000 T00001033 FZRANO
PAHP 241456Z AUTO 30016KT 10SM UP CLR 01/M04 A2959 RMK AO2 RAB14E38UPB56SNB21E32 SLP018 P0000 60000 T00061039 58001 FZRANO
PAHP 241356Z AUTO 29018KT 10SM SCT055 01/M04 A2959 RMK AO2 UPB18E32RAB32E33 SLP021 P0000 T00061044 FZRANO
PAHP 241256Z AUTO 33010KT 10SM SCT026 BKN031 OVC044 00/M02 A2959 RMK AO2 UPB21E47 SLP020 P0000 T00001017 FZRANO